メインページ
METAR-TAF:

METAR-TAF

空港 :

ホニアラ国際空港

ホニアラ, ガダルカナル島, ソロモン諸島

緯度: 09-25S, 経度: 160-03E, 海抜: 8m

現時点の気象観測

当レポートは1時間2分前の20:00(UTC)に作成
南/南東の風 4kt
気温 23°C
湿度 100%
気圧 1011 hPa
視程10km以上
高度1600ftの雲はほとんどない
高度1700ftの雲はほとんどない, 積乱雲.

METAR: AGGH 222000Z 16004KT 9999 FEW016 FEW017CB 23/23 Q1011

時間: 08:02 (21:02 UTC)

予報

当レポートは3時間47分前の17:15(UTC)に作成
予報は22日の 18時(UTC)から 23日の 18時(UTC)まで有効
変向風 4kt
視程10km以上
高度1700ftの雲はほとんどない
23日の 0300時(UTC)から
の風 10kt
視程10km以上
高度1900ftの雲は散在している
高度2800ftの雲は散在している
確率 40%
間 INからTE UTC
視程: 1009m
高度1600ftの雲は散在している
高度1900ftの雲はほとんどない, 積乱雲.
高度2900ftの千切れ雲あり

TAF: AGGH 221715Z 2218/2318 VRB04KT 9999 FEW017 FM230300 08010KT 9999 SCT019 SCT028 PROB40 INTER 2300/2306 5000 TSSH SCT016 FEW019CB BKN029 T 23 27 30 31 Q 1009 1011 1011 1009

4,000以上の空港の気象観測と天気予報(METAR報とTAF報)

利用可能な観測所は地図上に黄色い丸と赤い丸で示す。

丸の上にカーソルを重ねると観測所名を参照できる。

次にクリックすると気象観測と天気予報を参照できる。

マップの切り替え:黒色「×」印の緑ボタンをクリックして拡大、「-」印の緑ボタンをクリックして縮小、緑色の三角印をクリックして隣りの地図に切り替え


METAR-TAF: